Time;durP1;ratioP1;P1;durP2;ratioP2;P2;SDS_P1;SDS_P2;PMS_P1;PMS_P2;Temp;Humidity;BMP_temperature;BMP_pressure;BME280_temperature;BME280_humidity;BME280_pressure;Samples;Min_cycle;Max_cycle;Signal;HPM_P1;HPM_P2
2023/01/27 00:00:13;;;;;;;18.60;13.65;;;;;;;;;;6238427;23;20012;-83
2023/01/27 00:02:43;;;;;;;20.67;15.32;;;;;;;;;;6239854;22;20468;-84
2023/01/27 00:05:12;;;;;;;24.00;14.73;;;;;;;;;;6214246;23;20027;-84
2023/01/27 00:07:44;;;;;;;18.38;13.57;;;;;;;;;;6217836;23;20464;-83
2023/01/27 00:10:18;;;;;;;19.75;16.15;;;;;;;;;;6251799;23;20436;-83
2023/01/27 00:15:33;;;;;;;22.38;14.30;;;;;;;;;;6241663;23;20027;-83
2023/01/27 00:18:02;;;;;;;22.90;16.10;;;;;;;;;;6244353;23;20019;-83
2023/01/27 00:26:05;;;;;;;22.45;16.60;;;;;;;;;;6215780;23;20012;-83
2023/01/27 00:28:34;;;;;;;19.83;15.15;;;;;;;;;;6244061;23;20457;-83
2023/01/27 00:31:02;;;;;;;18.13;13.55;;;;;;;;;;6242410;23;20361;-83
2023/01/27 00:33:32;;;;;;;24.92;17.75;;;;;;;;;;6217017;23;20023;-83
2023/01/27 00:36:02;;;;;;;25.35;17.30;;;;;;;;;;6216834;23;20016;-83
2023/01/27 00:38:31;;;;;;;22.45;16.63;;;;;;;;;;6242186;23;20360;-83
2023/01/27 00:41:19;;;;;;;25.65;17.23;;;;;;;;;;6239816;23;20016;-83
2023/01/27 00:43:46;;;;;;;26.60;16.88;;;;;;;;;;6240680;23;20471;-83
2023/01/27 00:46:14;;;;;;;21.58;16.85;;;;;;;;;;6242126;23;20464;-83
2023/01/27 00:48:42;;;;;;;30.48;20.13;;;;;;;;;;6243461;23;20353;-83
2023/01/27 00:51:10;;;;;;;28.88;21.17;;;;;;;;;;6240356;23;20016;-83
2023/01/27 00:53:37;;;;;;;29.08;22.35;;;;;;;;;;6241970;22;20012;-83
2023/01/27 00:56:05;;;;;;;35.05;22.25;;;;;;;;;;6214960;23;20016;-83
2023/01/27 00:58:35;;;;;;;31.05;21.02;;;;;;;;;;6241775;23;20023;-83
2023/01/27 01:01:06;;;;;;;30.75;21.85;;;;;;;;;;6240823;23;20016;-83
2023/01/27 01:03:36;;;;;;;30.90;24.50;;;;;;;;;;6243092;22;20035;-83
2023/01/27 01:06:07;;;;;;;42.03;23.77;;;;;;;;;;6215612;23;20027;-83
2023/01/27 01:08:36;;;;;;;37.20;24.77;;;;;;;;;;6254526;23;20016;-83
2023/01/27 01:11:06;;;;;;;30.90;21.85;;;;;;;;;;6240248;23;20464;-83
2023/01/27 01:13:34;;;;;;;28.73;21.35;;;;;;;;;;6215727;23;20031;-83
2023/01/27 01:16:05;;;;;;;31.90;22.38;;;;;;;;;;6251094;23;20013;-83
2023/01/27 01:18:33;;;;;;;25.77;20.75;;;;;;;;;;6216707;23;20479;-83
2023/01/27 01:21:01;;;;;;;34.72;22.58;;;;;;;;;;6213975;23;20491;-83
2023/01/27 01:23:29;;;;;;;26.50;17.90;;;;;;;;;;6241810;22;20023;-84
2023/01/27 01:25:57;;;;;;;27.63;20.33;;;;;;;;;;6240351;23;20012;-83
2023/01/27 01:28:25;;;;;;;35.00;22.10;;;;;;;;;;6242322;23;20344;-83
2023/01/27 01:30:52;;;;;;;45.85;21.17;;;;;;;;;;6214765;23;20425;-83
2023/01/27 01:33:19;;;;;;;29.13;18.25;;;;;;;;;;6215171;23;20012;-83
2023/01/27 01:35:47;;;;;;;27.73;21.55;;;;;;;;;;6241330;23;20479;-83
2023/01/27 01:38:14;;;;;;;29.27;21.98;;;;;;;;;;6250915;23;20016;-83
2023/01/27 01:40:44;;;;;;;23.92;16.52;;;;;;;;;;6213590;23;20460;-83
2023/01/27 01:43:15;;;;;;;26.67;19.90;;;;;;;;;;6241299;22;20023;-83
2023/01/27 01:45:50;;;;;;;28.67;22.13;;;;;;;;;;6249401;23;20439;-83
2023/01/27 01:48:24;;;;;;;24.17;19.98;;;;;;;;;;6241305;23;20352;-83
2023/01/27 01:50:58;;;;;;;27.55;18.85;;;;;;;;;;6213270;23;20024;-83
2023/01/27 01:53:30;;;;;;;21.30;16.50;;;;;;;;;;6243619;23;20015;-83
2023/01/27 01:56:01;;;;;;;28.48;21.60;;;;;;;;;;6239061;23;20027;-83
2023/01/27 01:58:31;;;;;;;31.60;23.52;;;;;;;;;;6217323;23;20016;-83
2023/01/27 02:00:58;;;;;;;23.20;17.92;;;;;;;;;;6212671;23;20514;-83
2023/01/27 02:03:29;;;;;;;29.95;20.35;;;;;;;;;;6241497;22;20019;-83
2023/01/27 02:05:56;;;;;;;22.27;17.27;;;;;;;;;;6215403;23;20016;-83
2023/01/27 02:08:27;;;;;;;27.05;19.83;;;;;;;;;;6240776;23;20356;-83
2023/01/27 02:10:54;;;;;;;27.83;20.60;;;;;;;;;;6212037;23;20051;-83
2023/01/27 02:13:25;;;;;;;27.85;19.20;;;;;;;;;;6239601;22;20012;-83
2023/01/27 02:15:55;;;;;;;27.15;20.20;;;;;;;;;;6214321;23;20016;-83
2023/01/27 02:18:22;;;;;;;26.05;18.17;;;;;;;;;;6241546;23;20475;-83
2023/01/27 02:20:51;;;;;;;36.88;21.98;;;;;;;;;;6238928;23;20016;-83
2023/01/27 02:23:30;;;;;;;33.17;20.33;;;;;;;;;;6216524;23;20023;-83
2023/01/27 02:26:01;;;;;;;30.13;19.77;;;;;;;;;;6248395;23;20012;-83
2023/01/27 02:28:30;;;;;;;32.35;19.95;;;;;;;;;;6215698;23;20484;-83
2023/01/27 02:30:59;;;;;;;27.88;19.83;;;;;;;;;;6239584;23;20019;-83
2023/01/27 02:33:27;;;;;;;23.98;21.15;;;;;;;;;;6216513;23;20020;-83
2023/01/27 02:35:58;;;;;;;22.63;15.18;;;;;;;;;;6240102;23;20023;-83
2023/01/27 02:38:32;;;;;;;22.27;15.48;;;;;;;;;;6252368;23;20016;-83
2023/01/27 02:41:04;;;;;;;23.27;18.02;;;;;;;;;;6248789;23;20020;-83
2023/01/27 02:43:33;;;;;;;25.88;20.33;;;;;;;;;;6215812;23;20020;-83
2023/01/27 02:46:03;;;;;;;24.65;15.98;;;;;;;;;;6215192;23;20020;-83
2023/01/27 02:48:31;;;;;;;27.50;16.65;;;;;;;;;;6216399;23;20027;-83
2023/01/27 02:50:58;;;;;;;18.67;13.55;;;;;;;;;;6251014;23;20012;-83
2023/01/27 02:53:26;;;;;;;24.23;16.13;;;;;;;;;;6240903;22;20009;-83
2023/01/27 02:55:55;;;;;;;30.80;19.05;;;;;;;;;;6214226;23;20040;-83
2023/01/27 02:58:24;;;;;;;32.65;15.73;;;;;;;;;;6240415;23;20012;-83
2023/01/27 03:00:54;;;;;;;17.75;13.52;;;;;;;;;;6239627;23;20027;-83
2023/01/27 03:03:21;;;;;;;21.83;17.02;;;;;;;;;;6242989;22;20034;-83
2023/01/27 03:05:50;;;;;;;23.27;17.45;;;;;;;;;;6213444;23;20035;-83
2023/01/27 03:08:22;;;;;;;25.52;16.40;;;;;;;;;;6216331;23;20023;-83
2023/01/27 03:10:52;;;;;;;31.60;15.65;;;;;;;;;;6211543;23;20035;-83
2023/01/27 03:13:23;;;;;;;23.02;17.17;;;;;;;;;;6217069;23;20459;-83
2023/01/27 03:18:46;;;;;;;26.25;17.65;;;;;;;;;;6237016;23;20036;-83
2023/01/27 03:21:13;;;;;;;24.10;16.17;;;;;;;;;;6212992;22;20027;-84
2023/01/27 03:23:44;;;;;;;26.35;17.95;;;;;;;;;;6241221;23;20012;-83
2023/01/27 03:26:12;;;;;;;30.30;17.23;;;;;;;;;;6240412;23;20016;-83
2023/01/27 03:29:53;;;;;;;24.25;18.75;;;;;;;;;;6213612;23;20034;-83
2023/01/27 03:31:33;;;;;;;25.75;17.05;;;;;;;;;;6214838;22;20016;-83
2023/01/27 03:34:06;;;;;;;22.67;14.98;;;;;;;;;;6215207;23;20043;-83
2023/01/27 03:47:41;;;;;;;18.95;14.10;;;;;;;;;;6241930;23;20356;-83
2023/01/27 03:50:12;;;;;;;25.85;16.50;;;;;;;;;;6214689;23;20027;-83
2023/01/27 03:53:01;;;;;;;23.05;16.55;;;;;;;;;;6217892;23;20023;-83
2023/01/27 03:55:29;;;;;;;17.95;13.38;;;;;;;;;;6253075;23;20019;-83
2023/01/27 03:58:04;;;;;;;25.42;15.70;;;;;;;;;;6243418;23;20015;-83
2023/01/27 04:00:33;;;;;;;21.63;15.18;;;;;;;;;;6251307;23;20019;-83
2023/01/27 04:08:30;;;;;;;22.60;17.10;;;;;;;;;;6347305;22;20343;-82
2023/01/27 04:13:47;;;;;;;26.92;14.90;;;;;;;;;;6307722;22;20470;-82
2023/01/27 04:16:16;;;;;;;22.33;15.90;;;;;;;;;;6278159;22;20015;-82
2023/01/27 04:18:46;;;;;;;22.45;16.65;;;;;;;;;;6250617;22;20022;-83
2023/01/27 04:21:13;;;;;;;24.33;17.60;;;;;;;;;;6275704;22;20020;-82
2023/01/27 04:23:43;;;;;;;26.90;17.55;;;;;;;;;;6304542;22;20014;-82
2023/01/27 04:26:10;;;;;;;21.70;16.88;;;;;;;;;;6252269;22;20026;-82
2023/01/27 04:28:40;;;;;;;23.80;17.33;;;;;;;;;;6276232;22;20015;-82
2023/01/27 04:31:07;;;;;;;21.08;15.70;;;;;;;;;;6304107;22;20015;-82
2023/01/27 04:33:35;;;;;;;22.05;16.08;;;;;;;;;;6276794;22;20347;-82
2023/01/27 04:36:05;;;;;;;24.15;16.00;;;;;;;;;;6276875;22;20011;-82
2023/01/27 04:38:33;;;;;;;24.48;17.05;;;;;;;;;;6278334;22;20022;-82
2023/01/27 04:41:02;;;;;;;21.98;17.52;;;;;;;;;;6277241;22;20034;-82
2023/01/27 04:43:29;;;;;;;27.67;17.33;;;;;;;;;;6277431;22;20011;-82
2023/01/27 04:45:57;;;;;;;25.35;17.77;;;;;;;;;;6251920;22;20038;-82
2023/01/27 04:48:24;;;;;;;21.83;14.25;;;;;;;;;;6304614;22;20012;-82
2023/01/27 04:50:52;;;;;;;24.08;14.55;;;;;;;;;;6305019;22;20022;-82
2023/01/27 04:53:19;;;;;;;21.58;17.00;;;;;;;;;;6252816;22;20126;-82
2023/01/27 04:55:50;;;;;;;22.98;18.92;;;;;;;;;;6251727;22;20026;-82
2023/01/27 04:58:22;;;;;;;30.27;20.25;;;;;;;;;;6276956;22;20023;-83
2023/01/27 05:00:49;;;;;;;23.55;17.08;;;;;;;;;;6277221;22;20459;-82
2023/01/27 05:03:16;;;;;;;25.70;16.27;;;;;;;;;;6252602;22;20478;-82
2023/01/27 05:05:45;;;;;;;25.42;16.00;;;;;;;;;;6304016;22;20343;-82
2023/01/27 05:08:14;;;;;;;21.65;14.52;;;;;;;;;;6252115;22;20015;-82
2023/01/27 05:10:44;;;;;;;30.40;18.17;;;;;;;;;;6251489;22;20030;-82
2023/01/27 05:13:11;;;;;;;28.58;18.95;;;;;;;;;;6276864;22;20193;-82
2023/01/27 05:15:39;;;;;;;24.50;19.65;;;;;;;;;;6302692;22;20034;-82
2023/01/27 05:18:08;;;;;;;33.45;19.02;;;;;;;;;;6249493;22;20486;-83
2023/01/27 05:20:37;;;;;;;28.35;20.13;;;;;;;;;;6302896;22;20371;-83
2023/01/27 05:25:50;;;;;;;29.67;21.05;;;;;;;;;;6283007;22;20019;-82
2023/01/27 05:28:17;;;;;;;29.92;17.80;;;;;;;;;;6304310;22;20022;-82
2023/01/27 05:30:46;;;;;;;25.00;18.35;;;;;;;;;;6301745;22;20019;-82
2023/01/27 05:33:18;;;;;;;22.67;17.23;;;;;;;;;;6271063;22;20013;-82
2023/01/27 05:35:45;;;;;;;27.08;18.15;;;;;;;;;;6272258;22;20467;-82
2023/01/27 05:38:15;;;;;;;24.83;16.88;;;;;;;;;;6300950;22;20033;-83
2023/01/27 05:40:45;;;;;;;26.15;18.13;;;;;;;;;;6307968;22;20019;-83
2023/01/27 05:43:16;;;;;;;25.42;17.30;;;;;;;;;;6246789;22;20121;-82
2023/01/27 05:45:43;;;;;;;12.70;11.02;;;;;;;;;;6297151;22;20485;-82
2023/01/27 05:48:12;;;;;;;19.35;14.63;;;;;;;;;;6296329;22;20183;-83
2023/01/27 05:50:41;;;;;;;14.18;11.40;;;;;;;;;;6274272;22;20015;-82
2023/01/27 05:53:11;;;;;;;14.95;9.63;;;;;;;;;;6276640;22;20011;-82
2023/01/27 05:55:43;;;;;;;12.07;9.15;;;;;;;;;;6275936;22;20022;-82
2023/01/27 05:58:10;;;;;;;13.65;9.63;;;;;;;;;;6251986;22;20012;-82
2023/01/27 06:00:41;;;;;;;6.35;4.28;;;;;;;;;;6301099;22;20359;-82
2023/01/27 06:03:08;;;;;;;6.50;5.20;;;;;;;;;;6251330;22;20021;-82
2023/01/27 06:05:38;;;;;;;7.30;5.60;;;;;;;;;;6250126;22;20645;-82
2023/01/27 06:08:07;;;;;;;6.85;4.20;;;;;;;;;;6276131;22;20019;-82
2023/01/27 06:10:36;;;;;;;6.65;4.00;;;;;;;;;;6250217;22;20035;-83
2023/01/27 06:13:03;;;;;;;6.72;5.57;;;;;;;;;;6273664;22;20038;-82
2023/01/27 06:15:31;;;;;;;7.20;4.75;;;;;;;;;;6249839;22;20027;-82
2023/01/27 06:18:02;;;;;;;6.13;4.80;;;;;;;;;;6250735;22;20467;-82
2023/01/27 06:20:29;;;;;;;6.28;4.90;;;;;;;;;;6302750;22;20011;-82
2023/01/27 06:22:57;;;;;;;6.53;4.53;;;;;;;;;;6305763;22;20015;-83
2023/01/27 06:25:25;;;;;;;3.88;3.53;;;;;;;;;;6256497;22;20042;-82
2023/01/27 06:27:54;;;;;;;5.65;4.85;;;;;;;;;;6275767;22;20034;-83
2023/01/27 06:30:23;;;;;;;5.88;5.20;;;;;;;;;;6286100;22;20015;-83
2023/01/27 06:32:51;;;;;;;8.85;5.65;;;;;;;;;;6278049;22;20463;-83
2023/01/27 06:35:19;;;;;;;4.47;3.75;;;;;;;;;;6277350;22;20007;-82
2023/01/27 06:37:48;;;;;;;6.47;4.60;;;;;;;;;;6307849;22;20022;-82
2023/01/27 06:40:18;;;;;;;9.43;5.95;;;;;;;;;;6314363;22;20015;-83
2023/01/27 06:42:45;;;;;;;6.18;4.93;;;;;;;;;;6276911;22;20011;-83
2023/01/27 06:45:13;;;;;;;5.90;4.90;;;;;;;;;;6276041;22;20019;-83
2023/01/27 06:47:40;;;;;;;8.15;6.35;;;;;;;;;;6299744;22;20026;-83
2023/01/27 06:50:09;;;;;;;6.60;4.38;;;;;;;;;;6248352;22;20015;-83
2023/01/27 06:52:38;;;;;;;4.53;3.45;;;;;;;;;;6277161;22;20019;-82
2023/01/27 06:55:06;;;;;;;7.55;6.28;;;;;;;;;;6251114;22;20019;-83
2023/01/27 06:57:33;;;;;;;6.55;5.45;;;;;;;;;;6313697;22;20027;-83
2023/01/27 07:00:04;;;;;;;6.97;3.90;;;;;;;;;;6313999;22;20027;-83
2023/01/27 07:02:31;;;;;;;5.53;4.15;;;;;;;;;;6307166;22;20018;-83
2023/01/27 07:04:58;;;;;;;7.22;4.20;;;;;;;;;;6249051;22;20359;-82
2023/01/27 07:07:25;;;;;;;5.68;4.25;;;;;;;;;;6304562;22;20012;-83
2023/01/27 07:09:54;;;;;;;5.53;5.03;;;;;;;;;;6270397;22;20019;-83
2023/01/27 07:12:21;;;;;;;5.95;4.07;;;;;;;;;;6276385;22;20011;-83
2023/01/27 07:14:48;;;;;;;7.97;5.80;;;;;;;;;;6278768;22;20007;-83
2023/01/27 07:17:20;;;;;;;5.47;3.92;;;;;;;;;;6317074;22;20015;-82
2023/01/27 07:19:52;;;;;;;6.40;4.68;;;;;;;;;;6287700;22;20371;-82
2023/01/27 07:22:24;;;;;;;8.15;4.50;;;;;;;;;;6275565;22;20016;-83
2023/01/27 07:24:51;;;;;;;5.32;4.20;;;;;;;;;;6252599;22;20023;-83
2023/01/27 07:27:20;;;;;;;4.72;4.22;;;;;;;;;;6304357;22;20563;-83
2023/01/27 07:29:47;;;;;;;7.90;4.43;;;;;;;;;;6276244;22;20019;-83
2023/01/27 07:32:17;;;;;;;6.70;4.47;;;;;;;;;;6311481;22;20011;-83
2023/01/27 07:34:44;;;;;;;6.75;4.25;;;;;;;;;;6253046;22;20026;-83
2023/01/27 07:37:11;;;;;;;4.97;3.97;;;;;;;;;;6307074;22;20022;-82
2023/01/27 07:39:38;;;;;;;5.65;4.50;;;;;;;;;;6279550;22;20402;-82
2023/01/27 07:42:06;;;;;;;6.57;4.53;;;;;;;;;;6277697;22;20023;-83
2023/01/27 07:44:36;;;;;;;5.13;4.60;;;;;;;;;;6277047;22;20015;-81
2023/01/27 07:47:04;;;;;;;4.25;3.35;;;;;;;;;;6252154;22;20034;-83
2023/01/27 07:49:31;;;;;;;7.88;5.25;;;;;;;;;;6306523;22;20012;-83
2023/01/27 07:51:58;;;;;;;5.40;4.88;;;;;;;;;;6285088;22;20034;-82
2023/01/27 07:54:28;;;;;;;6.82;4.18;;;;;;;;;;6278493;22;20022;-82
2023/01/27 07:56:55;;;;;;;6.88;5.72;;;;;;;;;;6251449;22;20019;-83
2023/01/27 07:59:25;;;;;;;5.65;3.70;;;;;;;;;;6305264;22;20329;-83
2023/01/27 08:01:53;;;;;;;8.02;5.72;;;;;;;;;;6277572;22;20022;-83
2023/01/27 08:04:23;;;;;;;6.00;4.47;;;;;;;;;;6252664;22;20019;-82
2023/01/27 08:06:50;;;;;;;7.00;4.68;;;;;;;;;;6277378;22;20015;-83
2023/01/27 08:09:20;;;;;;;5.47;4.63;;;;;;;;;;6315723;22;20018;-82
2023/01/27 08:11:47;;;;;;;6.78;4.75;;;;;;;;;;6314463;22;20011;-82
2023/01/27 08:14:14;;;;;;;5.10;4.45;;;;;;;;;;6306704;22;20027;-82
2023/01/27 08:16:44;;;;;;;10.70;4.97;;;;;;;;;;6278666;22;20019;-83
2023/01/27 08:19:12;;;;;;;7.18;5.05;;;;;;;;;;6252500;22;20026;-83
2023/01/27 08:21:40;;;;;;;4.43;4.03;;;;;;;;;;6305599;22;20012;-82
2023/01/27 08:24:09;;;;;;;5.88;4.00;;;;;;;;;;6305590;22;20018;-82
2023/01/27 08:26:36;;;;;;;14.73;9.70;;;;;;;;;;6314534;22;20011;-82
2023/01/27 08:29:03;;;;;;;6.35;5.28;;;;;;;;;;6277830;22;20354;-84
2023/01/27 08:31:30;;;;;;;5.65;4.45;;;;;;;;;;6277794;22;20019;-83
2023/01/27 08:34:03;;;;;;;9.93;5.82;;;;;;;;;;6251988;22;20027;-83
2023/01/27 08:36:31;;;;;;;6.25;5.43;;;;;;;;;;6304144;22;20363;-83
2023/01/27 08:38:59;;;;;;;6.40;5.35;;;;;;;;;;6278268;22;20011;-82
2023/01/27 08:41:28;;;;;;;5.60;4.60;;;;;;;;;;6304554;22;20015;-82
2023/01/27 08:43:55;;;;;;;5.43;4.57;;;;;;;;;;6305844;22;20115;-82
2023/01/27 08:46:23;;;;;;;5.07;4.43;;;;;;;;;;6250456;22;20022;-82
2023/01/27 08:48:52;;;;;;;7.18;5.65;;;;;;;;;;6278936;22;20012;-82
2023/01/27 08:51:22;;;;;;;8.60;4.88;;;;;;;;;;6303823;22;20012;-82
2023/01/27 08:53:50;;;;;;;6.88;5.60;;;;;;;;;;6302745;22;20011;-81
2023/01/27 08:56:18;;;;;;;9.38;5.93;;;;;;;;;;6274255;22;20007;-82
2023/01/27 08:58:47;;;;;;;8.05;5.55;;;;;;;;;;6278088;22;20019;-81
2023/01/27 09:01:16;;;;;;;5.30;4.47;;;;;;;;;;6251015;22;20015;-82
2023/01/27 09:03:44;;;;;;;5.80;3.97;;;;;;;;;;6276729;22;20019;-82
2023/01/27 09:06:12;;;;;;;5.60;4.10;;;;;;;;;;6249945;22;20019;-82
2023/01/27 09:08:40;;;;;;;6.90;4.93;;;;;;;;;;6276001;22;20022;-83
2023/01/27 09:11:10;;;;;;;6.60;4.65;;;;;;;;;;6277441;22;20333;-83
2023/01/27 09:13:40;;;;;;;4.95;4.47;;;;;;;;;;6252687;22;20023;-84
2023/01/27 09:16:07;;;;;;;8.35;4.97;;;;;;;;;;6274635;22;20011;-83
2023/01/27 09:18:35;;;;;;;5.75;4.32;;;;;;;;;;6276673;22;20023;-83
2023/01/27 09:21:06;;;;;;;5.88;4.82;;;;;;;;;;6277616;22;20340;-84
2023/01/27 09:23:35;;;;;;;7.90;5.70;;;;;;;;;;6251091;22;20024;-83
2023/01/27 09:26:02;;;;;;;5.82;5.22;;;;;;;;;;6277556;22;20343;-84
2023/01/27 09:28:31;;;;;;;6.20;3.90;;;;;;;;;;6278950;22;20456;-84
2023/01/27 09:31:03;;;;;;;4.47;4.07;;;;;;;;;;6276065;22;20034;-83
2023/01/27 09:33:33;;;;;;;6.82;4.15;;;;;;;;;;6277948;22;20015;-84
2023/01/27 09:36:05;;;;;;;4.63;3.03;;;;;;;;;;6313699;22;20018;-84
2023/01/27 09:38:35;;;;;;;5.25;3.78;;;;;;;;;;6289607;22;20011;-83
2023/01/27 09:41:15;;;;;;;4.55;3.25;;;;;;;;;;6302829;22;20018;-84
2023/01/27 09:44:00;;;;;;;6.15;3.75;;;;;;;;;;6252780;22;20478;-84
2023/01/27 09:46:41;;;;;;;3.80;2.50;;;;;;;;;;6277058;22;20011;-84
2023/01/27 09:49:21;;;;;;;2.53;2.20;;;;;;;;;;6252164;22;20015;-84
2023/01/27 09:51:54;;;;;;;3.75;2.53;;;;;;;;;;6251691;22;20015;-83
2023/01/27 09:54:34;;;;;;;;;;;;;;;;;;6289535;22;20018;-83
2023/01/27 09:57:09;;;;;;;4.72;3.15;;;;;;;;;;6314704;22;19926;-83
2023/01/27 09:59:50;;;;;;;3.47;2.30;;;;;;;;;;6288519;22;20008;-83
2023/01/27 10:05:30;;;;;;;4.95;3.17;;;;;;;;;;6305711;22;20039;-86
2023/01/27 10:08:13;;;;;;;6.00;2.78;;;;;;;;;;6278682;22;20019;-86
2023/01/27 10:11:01;;;;;;;2.65;1.73;;;;;;;;;;6252530;22;20389;-87
2023/01/27 10:13:35;;;;;;;4.10;2.88;;;;;;;;;;6252890;22;20019;-87
2023/01/27 10:16:20;;;;;;;2.63;2.35;;;;;;;;;;6253480;22;20019;-87
2023/01/27 10:19:06;;;;;;;3.40;2.35;;;;;;;;;;6288770;22;20350;-86
2023/01/27 10:21:43;;;;;;;3.45;1.88;;;;;;;;;;6252252;22;20023;-86
2023/01/27 10:24:25;;;;;;;4.40;2.13;;;;;;;;;;6252875;22;20015;-86
2023/01/27 10:26:56;;;;;;;3.55;2.35;;;;;;;;;;6250722;22;20358;-88
2023/01/27 10:29:28;;;;;;;4.00;2.53;;;;;;;;;;6278334;22;20015;-86
2023/01/27 10:32:01;;;;;;;2.95;2.08;;;;;;;;;;6251688;22;20020;-86
2023/01/27 10:34:36;;;;;;;3.30;2.25;;;;;;;;;;6282161;22;20462;-86
2023/01/27 10:37:15;;;;;;;3.65;2.80;;;;;;;;;;6251155;22;20027;-88
2023/01/27 10:39:47;;;;;;;4.90;2.70;;;;;;;;;;6315519;22;20015;-87
2023/01/27 10:42:24;;;;;;;4.07;2.80;;;;;;;;;;6251095;22;20022;-86
2023/01/27 10:45:27;;;;;;;4.40;2.78;;;;;;;;;;6251170;22;20066;-86
2023/01/27 10:48:33;;;;;;;3.50;2.13;;;;;;;;;;6276647;22;20015;-86
2023/01/27 10:51:06;;;;;;;3.35;2.15;;;;;;;;;;6122941;23;20017;-86
2023/01/27 10:53:47;;;;;;;3.70;2.65;;;;;;;;;;6234283;22;20026;-88
2023/01/27 10:56:27;;;;;;;3.50;2.72;;;;;;;;;;6253164;22;20462;-85
2023/01/27 10:58:59;;;;;;;2.10;1.88;;;;;;;;;;6250456;22;20023;-85
2023/01/27 11:01:39;;;;;;;3.53;2.63;;;;;;;;;;6278535;22;20011;-87
2023/01/27 11:04:13;;;;;;;3.03;1.88;;;;;;;;;;6252730;22;20019;-88
2023/01/27 11:06:45;;;;;;;3.35;2.90;;;;;;;;;;6252916;22;20016;-86
2023/01/27 11:09:17;;;;;;;3.55;2.72;;;;;;;;;;6280544;22;20011;-86
2023/01/27 11:11:45;;;;;;;3.55;1.88;;;;;;;;;;6251530;22;20023;-87
2023/01/27 11:14:25;;;;;;;2.38;1.88;;;;;;;;;;6249292;22;20023;-87
2023/01/27 11:16:57;;;;;;;3.05;2.00;;;;;;;;;;6253111;22;20019;-87
2023/01/27 11:19:33;;;;;;;2.88;2.53;;;;;;;;;;6252317;22;20019;-87
2023/01/27 11:22:03;;;;;;;4.32;3.30;;;;;;;;;;6224369;22;20035;-86
2023/01/27 11:24:36;;;;;;;2.10;1.90;;;;;;;;;;6248127;22;20367;-86
2023/01/27 11:27:17;;;;;;;5.38;2.42;;;;;;;;;;6288233;22;20012;-86
2023/01/27 11:29:52;;;;;;;2.72;2.28;;;;;;;;;;6228035;22;20016;-86
2023/01/27 11:32:31;;;;;;;4.45;3.13;;;;;;;;;;6228003;22;20020;-87
2023/01/27 11:35:03;;;;;;;2.90;2.42;;;;;;;;;;6249099;22;20015;-86
2023/01/27 11:37:32;;;;;;;4.18;2.40;;;;;;;;;;6224312;22;20023;-87
2023/01/27 11:40:00;;;;;;;3.67;2.35;;;;;;;;;;6247502;22;20034;-87
2023/01/27 11:42:32;;;;;;;3.28;2.45;;;;;;;;;;6247105;22;20012;-87
2023/01/27 11:45:00;;;;;;;3.22;2.15;;;;;;;;;;6248388;22;20020;-87
2023/01/27 11:47:36;;;;;;;2.58;2.00;;;;;;;;;;6222532;22;20016;-86
2023/01/27 11:50:06;;;;;;;4.57;2.25;;;;;;;;;;6257647;22;20030;-88
2023/01/27 11:52:45;;;;;;;4.03;2.17;;;;;;;;;;6220190;22;20058;-86
2023/01/27 11:55:17;;;;;;;2.28;2.05;;;;;;;;;;6241712;22;20031;-87
2023/01/27 11:57:53;;;;;;;3.55;2.28;;;;;;;;;;6220189;22;20020;-87
2023/01/27 12:00:24;;;;;;;3.10;2.42;;;;;;;;;;6258869;22;20011;-86
2023/01/27 12:02:55;;;;;;;4.40;2.63;;;;;;;;;;6221600;22;20071;-87
2023/01/27 12:05:30;;;;;;;4.33;3.33;;;;;;;;;;6248259;22;20039;-86
2023/01/27 12:08:00;;;;;;;3.75;2.30;;;;;;;;;;6221231;22;20350;-86
2023/01/27 12:10:32;;;;;;;3.58;2.60;;;;;;;;;;6222176;22;20011;-86
2023/01/27 12:13:07;;;;;;;3.80;3.08;;;;;;;;;;6247791;22;20375;-88
2023/01/27 12:15:35;;;;;;;4.38;2.90;;;;;;;;;;6221943;22;20019;-86
2023/01/27 12:18:09;;;;;;;3.25;2.75;;;;;;;;;;6221939;22;20354;-85
2023/01/27 12:20:42;;;;;;;3.92;2.92;;;;;;;;;;6221268;22;20031;-86
2023/01/27 12:23:22;;;;;;;5.05;3.05;;;;;;;;;;6284268;22;20015;-86
2023/01/27 12:25:54;;;;;;;2.58;2.10;;;;;;;;;;6222019;22;20023;-87
2023/01/27 12:28:30;;;;;;;4.45;3.20;;;;;;;;;;6223633;22;20633;-88
2023/01/27 12:31:04;;;;;;;4.40;3.03;;;;;;;;;;6284243;22;20480;-86
2023/01/27 12:33:36;;;;;;;3.80;3.28;;;;;;;;;;6247602;22;20340;-87
2023/01/27 12:36:14;;;;;;;3.88;2.53;;;;;;;;;;6222440;22;20042;-86
2023/01/27 12:38:53;;;;;;;3.50;2.25;;;;;;;;;;6259238;22;20012;-87
2023/01/27 12:41:24;;;;;;;2.92;2.65;;;;;;;;;;6222007;22;20019;-86
2023/01/27 12:44:01;;;;;;;3.15;2.90;;;;;;;;;;6222663;22;20498;-86
2023/01/27 12:46:29;;;;;;;5.88;3.25;;;;;;;;;;6222529;22;20015;-86
2023/01/27 12:49:02;;;;;;;3.95;3.13;;;;;;;;;;6223277;22;20467;-87
2023/01/27 12:51:39;;;;;;;3.60;2.92;;;;;;;;;;6247676;22;20016;-87
2023/01/27 12:54:20;;;;;;;3.22;2.92;;;;;;;;;;6222978;22;20023;-86
2023/01/27 12:56:54;;;;;;;4.00;3.30;;;;;;;;;;6257137;22;20015;-86
2023/01/27 12:59:28;;;;;;;4.22;3.25;;;;;;;;;;6223659;22;20023;-87
2023/01/27 13:02:00;;;;;;;3.60;2.60;;;;;;;;;;6248308;22;20019;-87
2023/01/27 13:04:28;;;;;;;3.17;2.33;;;;;;;;;;6246374;22;20015;-86
2023/01/27 13:07:11;;;;;;;4.85;2.88;;;;;;;;;;6256172;22;20019;-86
2023/01/27 13:09:50;;;;;;;3.63;2.72;;;;;;;;;;6221129;22;20031;-86
2023/01/27 13:12:20;;;;;;;4.43;3.00;;;;;;;;;;6247957;22;20055;-87
2023/01/27 13:14:51;;;;;;;3.03;2.58;;;;;;;;;;6222529;22;20023;-89
2023/01/27 13:17:30;;;;;;;2.97;2.45;;;;;;;;;;6247206;22;20020;-86
2023/01/27 13:20:00;;;;;;;4.18;2.40;;;;;;;;;;6221333;22;20503;-86
2023/01/27 13:22:42;;;;;;;4.05;2.75;;;;;;;;;;6221578;22;20012;-86
2023/01/27 13:25:17;;;;;;;3.85;2.70;;;;;;;;;;6221701;22;20370;-87
2023/01/27 13:27:46;;;;;;;6.15;2.72;;;;;;;;;;6221971;22;20016;-86
2023/01/27 13:30:21;;;;;;;4.03;2.55;;;;;;;;;;6222198;22;20489;-87
2023/01/27 13:32:49;;;;;;;3.60;2.75;;;;;;;;;;6222953;22;20496;-86
2023/01/27 13:35:22;;;;;;;3.45;2.30;;;;;;;;;;6221019;22;20023;-87
2023/01/27 13:38:00;;;;;;;2.25;1.83;;;;;;;;;;6285309;22;20015;-89
2023/01/27 13:40:30;;;;;;;2.92;2.47;;;;;;;;;;6246252;22;20019;-87
2023/01/27 13:43:04;;;;;;;3.28;2.80;;;;;;;;;;6246298;22;20327;-87
2023/01/27 13:45:40;;;;;;;2.53;2.10;;;;;;;;;;6247126;22;20015;-86
2023/01/27 13:48:14;;;;;;;4.32;2.28;;;;;;;;;;6246647;22;20390;-86
2023/01/27 13:50:44;;;;;;;2.70;2.40;;;;;;;;;;6221815;22;20039;-86
2023/01/27 13:53:18;;;;;;;5.03;2.72;;;;;;;;;;6222547;22;20051;-86
2023/01/27 13:56:14;;;;;;;6.07;2.88;;;;;;;;;;6246000;22;20015;-87
2023/01/27 13:58:54;;;;;;;3.85;2.65;;;;;;;;;;6220926;22;20362;-86
2023/01/27 14:01:24;;;;;;;2.83;2.05;;;;;;;;;;6222899;22;20358;-87
2023/01/27 14:04:16;;;;;;;3.35;2.53;;;;;;;;;;6223472;22;20015;-87
2023/01/27 14:06:53;;;;;;;3.08;2.85;;;;;;;;;;6258259;22;20034;-86
2023/01/27 14:09:31;;;;;;;3.85;2.60;;;;;;;;;;6224145;22;20016;-87
2023/01/27 14:12:05;;;;;;;4.47;3.22;;;;;;;;;;6275002;22;20015;-87
2023/01/27 14:14:43;;;;;;;5.88;3.63;;;;;;;;;;6247469;22;20030;-87
2023/01/27 14:17:28;;;;;;;2.92;2.03;;;;;;;;;;6221833;22;20023;-86
2023/01/27 14:20:05;;;;;;;2.17;1.80;;;;;;;;;;6219916;22;20030;-86
2023/01/27 14:22:41;;;;;;;3.03;2.50;;;;;;;;;;6248287;22;20015;-87
2023/01/27 14:25:20;;;;;;;3.10;2.58;;;;;;;;;;6197314;22;20344;-86
2023/01/27 14:27:54;;;;;;;4.25;2.40;;;;;;;;;;6221547;22;20031;-87
2023/01/27 14:30:29;;;;;;;2.42;2.20;;;;;;;;;;6221164;22;20016;-86
2023/01/27 14:33:03;;;;;;;3.05;2.67;;;;;;;;;;6273076;22;20351;-86
2023/01/27 14:35:36;;;;;;;3.50;2.55;;;;;;;;;;6222410;22;20031;-88
2023/01/27 14:38:10;;;;;;;4.05;2.10;;;;;;;;;;6248069;22;20023;-86
2023/01/27 14:40:46;;;;;;;3.55;2.35;;;;;;;;;;6219682;22;20019;-86
2023/01/27 14:43:19;;;;;;;3.13;2.55;;;;;;;;;;6248105;22;20016;-86
2023/01/27 14:45:53;;;;;;;3.15;1.98;;;;;;;;;;6246570;22;20011;-86
2023/01/27 14:48:40;;;;;;;2.63;2.08;;;;;;;;;;6258333;22;20015;-86
2023/01/27 14:51:20;;;;;;;5.30;2.83;;;;;;;;;;6246617;22;20023;-87
2023/01/27 14:54:00;;;;;;;2.80;2.50;;;;;;;;;;6253601;22;20016;-86
2023/01/27 14:56:42;;;;;;;3.10;2.83;;;;;;;;;;6245971;22;20016;-87
2023/01/27 14:59:20;;;;;;;4.03;3.35;;;;;;;;;;6221263;22;20012;-86
2023/01/27 15:01:51;;;;;;;3.70;2.17;;;;;;;;;;6222021;22;20473;-86
2023/01/27 15:04:32;;;;;;;;;;;;;;;;;;6246669;22;20027;-86
2023/01/27 15:07:09;;;;;;;2.88;1.90;;;;;;;;;;6257094;22;19926;-87
2023/01/27 15:09:39;;;;;;;;;;;;;;;;;;6247646;22;20039;-86
2023/01/27 15:12:23;;;;;;;2.60;1.90;;;;;;;;;;6220759;22;20358;-87
2023/01/27 15:15:05;;;;;;;2.33;1.83;;;;;;;;;;6248114;22;20012;-86
2023/01/27 15:17:42;;;;;;;2.78;1.60;;;;;;;;;;6246041;22;20028;-87
2023/01/27 15:20:41;;;;;;;2.67;2.47;;;;;;;;;;6245770;22;20026;-87
2023/01/27 15:23:27;;;;;;;29.02;14.55;;;;;;;;;;6255802;22;20016;-88
2023/01/27 15:25:56;;;;;;;4.70;4.03;;;;;;;;;;6221243;22;20016;-88
2023/01/27 15:28:31;;;;;;;7.03;3.47;;;;;;;;;;6221432;22;20023;-87
2023/01/27 15:31:22;;;;;;;4.28;2.58;;;;;;;;;;6219879;22;20023;-87
2023/01/27 15:33:55;;;;;;;4.43;3.45;;;;;;;;;;6221531;22;20027;-88
2023/01/27 15:36:37;;;;;;;5.13;3.88;;;;;;;;;;6224829;22;20012;-86